KSSI/SSI METAR and TAF weather

Enter ICAO airport designator
Station Type Date Time Source
KSSI METAR 2019/08/20 09:53 UTC NOAA

KSSI 200953Z AUTO 00000KT 10SM CLR 26/23 A3009 RMK AO2 SLP191 T02560233


Station Type Date Time Source
KSSI Decoded METAR 2019/08/20 09:53 UTC NOAA

BRUNSWICK MC KINNON AIRPORT , GA, United States (KSSI) 31-09N 081-23W 6M
Aug 20, 2019 - 05:53 AM EDT / 2019.08.20 0953 UTC
Wind: Calm:0
Visibility: 10 mile(s):0
Sky conditions: clear
Temperature: 78.1 F (25.6 C)
Dew Point: 73.9 F (23.3 C)
Relative Humidity: 87%
Pressure (altimeter): 30.09 in. Hg (1018 hPa)
ob: KSSI 200953Z AUTO 00000KT 10SM CLR 26/23 A3009 RMK AO2 SLP191 T02560233
cycle: 10

Station Type Date Time Source
KSSI TAF 2019/08/20 06:36 UTC NOAA

TAF KSSI 200533Z 2006/2106 00000KT P6SM SCT040 BKN080 BKN250
FM201500 18006KT P6SM BKN250
FM202000 15010KT P6SM SCT250
FM210000 15006KT P6SM SCT040 BKN250

Example: see airport list